Time;durP1;ratioP1;P1;durP2;ratioP2;P2;SDS_P1;SDS_P2;PMS_P1;PMS_P2;Temp;Humidity;BMP_temperature;BMP_pressure;BME280_temperature;BME280_humidity;BME280_pressure;Samples;Min_cycle;Max_cycle;Signal;HPM_P1;HPM_P2
2020/04/09 00:03:01;;;;;;;10.1;7.95;;;;;;;8.76;61.94629;95716.44;;;;
2020/04/09 00:04:28;;;;;;;10.1;7.95;;;;;;;8.76;61.94629;95716.44;;;;
2020/04/09 00:05:53;;;;;;;10.85;8.400001;;;;;;;8.72;62.16602;95717.52;;;;
2020/04/09 00:07:00;;;;;;;10.85;8.400001;;;;;;;8.72;62.16602;95717.52;;;;
2020/04/09 00:08:20;;;;;;;10.4;8.049999;;;;;;;8.69;62.24609;95716.16;;;;
2020/04/09 00:09:26;;;;;;;10.4;8.049999;;;;;;;8.69;62.24609;95716.16;;;;
2020/04/09 00:10:44;;;;;;;13.2;8.400001;;;;;;;8.65;62.41113;95714.4;;;;
2020/04/09 00:12:37;;;;;;;13.2;8.400001;;;;;;;8.65;62.41113;95714.4;;;;
2020/04/09 00:13:42;;;;;;;8.65;7.750001;;;;;;;8.62;62.50391;95706.77;;;;
2020/04/09 00:14:43;;;;;;;8.65;7.750001;;;;;;;8.62;62.50391;95706.77;;;;
2020/04/09 00:16:09;;;;;;;9.9;7.9;;;;;;;8.58;62.66895;95706.47;;;;
2020/04/09 00:17:21;;;;;;;9.9;7.9;;;;;;;8.58;62.66895;95706.47;;;;
2020/04/09 00:18:23;;;;;;;9.050001;7.9;;;;;;;8.54;62.71582;95700.39;;;;
2020/04/09 00:19:26;;;;;;;9.050001;7.9;;;;;;;8.54;62.71582;95700.39;;;;
2020/04/09 00:20:36;;;;;;;9.050001;7.9;;;;;;;8.54;62.71582;95700.39;;;;
2020/04/09 00:21:53;;;;;;;10.35;8;;;;;;;8.5;62.83887;95695.54;;;;
2020/04/09 00:23:14;;;;;;;10.35;8;;;;;;;8.5;62.83887;95695.54;;;;
2020/04/09 00:24:14;;;;;;;9.1;7.6;;;;;;;8.47;62.92969;95699.59;;;;
2020/04/09 00:25:19;;;;;;;9.1;7.6;;;;;;;8.47;62.92969;95699.59;;;;
2020/04/09 00:26:22;;;;;;;8.25;7.450001;;;;;;;8.43;63.11719;95690.7;;;;
2020/04/09 00:27:26;;;;;;;8.25;7.450001;;;;;;;8.43;63.11719;95690.7;;;;
2020/04/09 00:28:27;;;;;;;8.25;7.450001;;;;;;;8.43;63.11719;95690.7;;;;
2020/04/09 00:29:30;;;;;;;9.149999;7.3;;;;;;;8.39;63.19727;95687.61;;;;
2020/04/09 00:30:31;;;;;;;9.149999;7.3;;;;;;;8.39;63.19727;95687.61;;;;
2020/04/09 00:31:35;;;;;;;9.050001;8.000002;;;;;;;8.35;63.28809;95685.46;;;;
2020/04/09 00:32:40;;;;;;;9.050001;8.000002;;;;;;;8.35;63.28809;95685.46;;;;
2020/04/09 00:33:46;;;;;;;9.050001;8.000002;;;;;;;8.35;63.28809;95685.46;;;;
2020/04/09 00:34:48;;;;;;;9.05;7.4;;;;;;;8.34;63.41406;95691.99;;;;
2020/04/09 00:35:54;;;;;;;9.05;7.4;;;;;;;8.34;63.41406;95691.99;;;;
2020/04/09 00:36:59;;;;;;;8.85;7.55;;;;;;;8.31;63.50586;95679.77;;;;
2020/04/09 00:38:07;;;;;;;8.85;7.55;;;;;;;8.31;63.50586;95679.77;;;;
2020/04/09 00:39:14;;;;;;;8.85;7.55;;;;;;;8.31;63.50586;95679.77;;;;
2020/04/09 00:41:53;;;;;;;8.699999;7.299999;;;;;;;8.29;63.53516;95682.79;;;;
2020/04/09 00:42:54;;;;;;;8.35;7.400001;;;;;;;8.28;63.65137;95679.27;;;;
2020/04/09 00:44:03;;;;;;;8.35;7.400001;;;;;;;8.28;63.65137;95679.27;;;;
2020/04/09 00:45:20;;;;;;;8.8;7.45;;;;;;;8.28;63.66113;95673.99;;;;
2020/04/09 00:46:32;;;;;;;8.8;7.45;;;;;;;8.28;63.66113;95673.99;;;;
2020/04/09 00:47:37;;;;;;;8.9;7.15;;;;;;;8.28;63.68262;95679.78;;;;
2020/04/09 00:48:50;;;;;;;8.9;7.15;;;;;;;8.28;63.68262;95679.78;;;;
2020/04/09 00:49:51;;;;;;;8.9;7.15;;;;;;;8.28;63.68262;95679.78;;;;
2020/04/09 00:50:54;;;;;;;8.9;7.15;;;;;;;8.28;63.68262;95679.78;;;;
2020/04/09 00:52:00;;;;;;;8.9;7.15;;;;;;;8.28;63.68262;95679.78;;;;
2020/04/09 00:53:00;;;;;;;8.9;7.15;;;;;;;8.28;63.68262;95679.78;;;;
2020/04/09 00:54:09;;;;;;;8.9;7.15;;;;;;;8.28;63.68262;95679.78;;;;
2020/04/09 00:55:14;;;;;;;8.9;7.15;;;;;;;8.28;63.68262;95679.78;;;;
2020/04/09 00:56:36;;;;;;;8.9;7.15;;;;;;;8.28;63.68262;95679.78;;;;
2020/04/09 00:58:03;;;;;;;9.1;7.05;;;;;;;7.91;62.32715;95670.95;;;;
2020/04/09 00:59:08;;;;;;;9.1;7.05;;;;;;;7.91;62.32715;95670.95;;;;
2020/04/09 01:00:11;;;;;;;9.1;7.05;;;;;;;7.91;62.32715;95670.95;;;;
2020/04/09 01:01:33;;;;;;;8.799999;7.4;;;;;;;7.9;62.91113;95669.39;;;;
2020/04/09 01:02:43;;;;;;;8.799999;7.4;;;;;;;7.9;62.91113;95669.39;;;;
2020/04/09 01:03:51;;;;;;;10.05;7.2;;;;;;;7.95;63.25098;95665.05;;;;
2020/04/09 01:04:59;;;;;;;10.05;7.2;;;;;;;7.95;63.25098;95665.05;;;;
2020/04/09 01:06:58;;;;;;;8.6;7.150001;;;;;;;8.01;63.41895;95661.61;;;;
2020/04/09 01:08:20;;;;;;;8.6;7.150001;;;;;;;8.01;63.41895;95661.61;;;;
2020/04/09 01:09:28;;;;;;;8.799999;7.4;;;;;;;8.05;63.47949;95661.93;;;;
2020/04/09 01:11:41;;;;;;;8.75;7;;;;;;;8.08;63.62109;95661.11;;;;
2020/04/09 01:12:53;;;;;;;8.75;7;;;;;;;8.08;63.62109;95661.11;;;;
2020/04/09 01:14:11;;;;;;;8.75;7;;;;;;;8.08;63.62109;95661.11;;;;
2020/04/09 01:15:24;;;;;;;8.75;7;;;;;;;8.08;63.62109;95661.11;;;;
2020/04/09 01:16:37;;;;;;;8.75;7;;;;;;;8.08;63.62109;95661.11;;;;
2020/04/09 01:19:38;;;;;;;8.75;7;;;;;;;8.08;63.62109;95661.11;;;;
2020/04/09 01:24:22;;;;;;;9.050001;7.349999;;;;;;;7.76;62.87988;95662.4;;;;
2020/04/09 01:26:45;;;;;;;9.050001;7.349999;;;;;;;7.76;62.87988;95662.4;;;;
2020/04/09 01:28:03;;;;;;;8.2;7.35;;;;;;;7.8;63.30273;95664.89;;;;
2020/04/09 01:29:15;;;;;;;8.2;7.35;;;;;;;7.8;63.30273;95664.89;;;;
2020/04/09 01:30:20;;;;;;;9.049999;7.050001;;;;;;;7.84;63.56445;95665.3;;;;
2020/04/09 01:31:41;;;;;;;9.049999;7.050001;;;;;;;7.84;63.56445;95665.3;;;;
2020/04/09 01:32:52;;;;;;;9.049999;7.050001;;;;;;;7.84;63.56445;95665.3;;;;
2020/04/09 01:34:03;;;;;;;9.049999;7.050001;;;;;;;7.84;63.56445;95665.3;;;;
2020/04/09 01:35:08;;;;;;;9.049999;7.050001;;;;;;;7.84;63.56445;95665.3;;;;
2020/04/09 01:36:57;;;;;;;9.049999;7.050001;;;;;;;7.84;63.56445;95665.3;;;;
2020/04/09 01:38:03;;;;;;;9.049999;7.050001;;;;;;;7.84;63.56445;95665.3;;;;
2020/04/09 01:39:03;;;;;;;9.049999;7.050001;;;;;;;7.84;63.56445;95665.3;;;;
2020/04/09 01:44:10;;;;;;;8.800001;7.050001;;;;;;;7.54;63.15918;95649.71;;;;
2020/04/09 01:45:15;;;;;;;8.800001;7.050001;;;;;;;7.54;63.15918;95649.71;;;;
2020/04/09 01:46:34;;;;;;;8.700001;7.3;;;;;;;7.59;63.5166;95653.13;;;;
2020/04/09 01:47:35;;;;;;;8.700001;7.3;;;;;;;7.59;63.5166;95653.13;;;;
2020/04/09 01:48:41;;;;;;;10.15;7.15;;;;;;;7.63;63.81152;95649.39;;;;
2020/04/09 01:49:46;;;;;;;10.15;7.15;;;;;;;7.63;63.81152;95649.39;;;;
2020/04/09 01:50:51;;;;;;;10.15;7.15;;;;;;;7.63;63.81152;95649.39;;;;
2020/04/09 01:51:55;;;;;;;10.15;7.15;;;;;;;7.63;63.81152;95649.39;;;;
2020/04/09 01:52:59;;;;;;;10.15;7.15;;;;;;;7.63;63.81152;95649.39;;;;
2020/04/09 01:54:00;;;;;;;10.15;7.15;;;;;;;7.63;63.81152;95649.39;;;;
2020/04/09 01:55:07;;;;;;;10.15;7.15;;;;;;;7.63;63.81152;95649.39;;;;
2020/04/09 01:56:24;;;;;;;10.15;7.15;;;;;;;7.63;63.81152;95649.39;;;;
2020/04/09 01:57:32;;;;;;;10.15;7.15;;;;;;;7.63;63.81152;95649.39;;;;
2020/04/09 01:58:42;;;;;;;10.1;7.000001;;;;;;;7.33;62.74512;95649.43;;;;
2020/04/09 01:59:47;;;;;;;10.1;7.000001;;;;;;;7.33;62.74512;95649.43;;;;
2020/04/09 02:00:51;;;;;;;10.1;7.000001;;;;;;;7.33;62.74512;95649.43;;;;
2020/04/09 02:02:21;;;;;;;8.450001;7.2;;;;;;;7.33;63.46875;95647.67;;;;
2020/04/09 02:03:46;;;;;;;8.450001;7.2;;;;;;;7.33;63.46875;95647.67;;;;
2020/04/09 02:05:09;;;;;;;8.450001;7.2;;;;;;;7.33;63.46875;95647.67;;;;
2020/04/09 02:14:34;;;;;;;7.5;6.8;;;;;;;7.15;63.48535;95648.38;;;;
2020/04/09 02:19:51;;;;;;;7.5;6.8;;;;;;;7.15;63.48535;95648.38;;;;
2020/04/09 02:21:19;;;;;;;7.5;6.8;;;;;;;7.15;63.48535;95648.38;;;;
2020/04/09 02:22:47;;;;;;;7.5;6.8;;;;;;;7.15;63.48535;95648.38;;;;
2020/04/09 02:23:48;;;;;;;7.5;6.8;;;;;;;7.15;63.48535;95648.38;;;;
2020/04/09 02:24:53;;;;;;;7.5;6.8;;;;;;;7.15;63.48535;95648.38;;;;
2020/04/09 02:26:02;;;;;;;8.5;7.35;;;;;;;7.02;62.72168;95651.88;;;;
2020/04/09 02:27:13;;;;;;;8.5;7.35;;;;;;;7.02;62.72168;95651.88;;;;
2020/04/09 02:28:24;;;;;;;7.95;7.149999;;;;;;;7.05;63.62012;95658.72;;;;
2020/04/09 02:29:33;;;;;;;7.95;7.149999;;;;;;;7.05;63.62012;95658.72;;;;
2020/04/09 02:30:36;;;;;;;9.249999;7.249999;;;;;;;7.12;64.18359;95650.95;;;;
2020/04/09 02:32:00;;;;;;;9.249999;7.249999;;;;;;;7.12;64.18359;95650.95;;;;
2020/04/09 02:33:06;;;;;;;8.15;7.35;;;;;;;7.19;64.63184;95654.5;;;;
2020/04/09 02:34:16;;;;;;;8.15;7.35;;;;;;;7.19;64.63184;95654.5;;;;
2020/04/09 02:35:29;;;;;;;8.15;7.35;;;;;;;7.19;64.63184;95654.5;;;;
2020/04/09 02:36:37;;;;;;;8.15;7.35;;;;;;;7.19;64.63184;95654.5;;;;
2020/04/09 02:37:42;;;;;;;8.15;7.35;;;;;;;7.19;64.63184;95654.5;;;;
2020/04/09 02:38:43;;;;;;;8.15;7.35;;;;;;;7.19;64.63184;95654.5;;;;
2020/04/09 02:39:46;;;;;;;8.15;7.35;;;;;;;7.19;64.63184;95654.5;;;;
2020/04/09 02:41:39;;;;;;;8.15;7.35;;;;;;;7.19;64.63184;95654.5;;;;
2020/04/09 02:42:39;;;;;;;8.15;7.35;;;;;;;7.19;64.63184;95654.5;;;;
2020/04/09 02:43:41;;;;;;;8.15;7;;;;;;;6.99;63.46191;95658.59;;;;
2020/04/09 02:44:45;;;;;;;8.15;7;;;;;;;6.99;63.46191;95658.59;;;;
2020/04/09 02:45:45;;;;;;;8.15;7;;;;;;;6.99;63.46191;95658.59;;;;
2020/04/09 02:46:49;;;;;;;7.85;7.050001;;;;;;;7;64.29297;95658.48;;;;
2020/04/09 02:47:54;;;;;;;7.85;7.050001;;;;;;;7;64.29297;95658.48;;;;
2020/04/09 02:48:54;;;;;;;7.85;7.050001;;;;;;;7;64.29297;95658.48;;;;
2020/04/09 02:49:55;;;;;;;7.85;7.050001;;;;;;;7;64.29297;95658.48;;;;
2020/04/09 02:51:10;;;;;;;7.85;7.050001;;;;;;;7;64.29297;95658.48;;;;
2020/04/09 02:52:26;;;;;;;7.85;7.050001;;;;;;;7;64.29297;95658.48;;;;
2020/04/09 02:53:27;;;;;;;7.85;7.050001;;;;;;;7;64.29297;95658.48;;;;
2020/04/09 02:54:27;;;;;;;7.85;7.050001;;;;;;;7;64.29297;95658.48;;;;
2020/04/09 02:55:34;;;;;;;7.85;7.050001;;;;;;;7;64.29297;95658.48;;;;
2020/04/09 02:56:34;;;;;;;7.85;7.050001;;;;;;;7;64.29297;95658.48;;;;
2020/04/09 02:57:35;;;;;;;8.799999;6.799999;;;;;;;6.84;63.48242;95666.92;;;;
2020/04/09 02:58:36;;;;;;;8.799999;6.799999;;;;;;;6.84;63.48242;95666.92;;;;
2020/04/09 02:59:36;;;;;;;7.350001;6.65;;;;;;;6.84;64.41992;95669.09;;;;
2020/04/09 03:00:42;;;;;;;7.350001;6.65;;;;;;;6.84;64.41992;95669.09;;;;
2020/04/09 03:01:54;;;;;;;7.350001;6.65;;;;;;;6.84;64.41992;95669.09;;;;
2020/04/09 03:02:55;;;;;;;7.350001;6.65;;;;;;;6.84;64.41992;95669.09;;;;
2020/04/09 03:03:56;;;;;;;7.350001;6.65;;;;;;;6.84;64.41992;95669.09;;;;
2020/04/09 03:04:56;;;;;;;7.350001;6.65;;;;;;;6.84;64.41992;95669.09;;;;
2020/04/09 03:05:58;;;;;;;7.350001;6.65;;;;;;;6.84;64.41992;95669.09;;;;
2020/04/09 03:06:58;;;;;;;7.350001;6.65;;;;;;;6.84;64.41992;95669.09;;;;
2020/04/09 03:07:59;;;;;;;7.350001;6.65;;;;;;;6.84;64.41992;95669.09;;;;
2020/04/09 03:08:59;;;;;;;7.350001;6.65;;;;;;;6.84;64.41992;95669.09;;;;
2020/04/09 03:10:00;;;;;;;7.350001;6.65;;;;;;;6.84;64.41992;95669.09;;;;
2020/04/09 03:13:44;;;;;;;7.299999;6.6;;;;;;;6.71;64.63379;95672.16;;;;
2020/04/09 03:14:57;;;;;;;7.299999;6.6;;;;;;;6.71;64.63379;95672.16;;;;
2020/04/09 03:16:08;;;;;;;7.299999;6.6;;;;;;;6.71;64.63379;95672.16;;;;
2020/04/09 03:17:24;;;;;;;7.299999;6.6;;;;;;;6.71;64.63379;95672.16;;;;
2020/04/09 03:18:37;;;;;;;7.299999;6.6;;;;;;;6.71;64.63379;95672.16;;;;
2020/04/09 03:25:04;;;;;;;8.049999;6.950001;;;;;;;6.55;63.89648;95674.79;;;;
2020/04/09 03:26:12;;;;;;;7.649999;6.9;;;;;;;6.57;64.90039;95675;;;;
2020/04/09 03:27:22;;;;;;;7.649999;6.9;;;;;;;6.57;64.90039;95675;;;;
2020/04/09 03:29:35;;;;;;;7.649999;6.9;;;;;;;6.57;64.90039;95675;;;;
2020/04/09 03:30:48;;;;;;;7.649999;6.9;;;;;;;6.57;64.90039;95675;;;;
2020/04/09 03:31:56;;;;;;;7.649999;6.9;;;;;;;6.57;64.90039;95675;;;;
2020/04/09 03:33:06;;;;;;;7.649999;6.9;;;;;;;6.57;64.90039;95675;;;;
2020/04/09 03:39:54;;;;;;;8.050001;7.100001;;;;;;;6.4;65.27832;95687.55;;;;
2020/04/09 03:42:09;;;;;;;8.050001;7.100001;;;;;;;6.4;65.27832;95687.55;;;;
2020/04/09 03:43:41;;;;;;;8.050001;7.100001;;;;;;;6.4;65.27832;95687.55;;;;
2020/04/09 03:44:58;;;;;;;8.050001;7.100001;;;;;;;6.4;65.27832;95687.55;;;;
2020/04/09 03:46:16;;;;;;;8.050001;7.100001;;;;;;;6.4;65.27832;95687.55;;;;
2020/04/09 03:47:40;;;;;;;8.050001;7.100001;;;;;;;6.4;65.27832;95687.55;;;;
2020/04/09 03:48:52;;;;;;;8.050001;7.100001;;;;;;;6.4;65.27832;95687.55;;;;
2020/04/09 03:50:00;;;;;;;8.6;7.25;;;;;;;6.24;64.68066;95683.33;;;;
2020/04/09 03:51:06;;;;;;;8.6;7.25;;;;;;;6.24;64.68066;95683.33;;;;
2020/04/09 03:52:29;;;;;;;7.85;7.05;;;;;;;6.3;65.65625;95685.31;;;;
2020/04/09 03:53:41;;;;;;;7.85;7.05;;;;;;;6.3;65.65625;95685.31;;;;
2020/04/09 03:54:50;;;;;;;7.85;7.05;;;;;;;6.3;65.65625;95685.31;;;;
2020/04/09 03:55:56;;;;;;;7.85;7.05;;;;;;;6.3;65.65625;95685.31;;;;
2020/04/09 03:57:07;;;;;;;7.85;7.05;;;;;;;6.3;65.65625;95685.31;;;;
2020/04/09 03:58:09;;;;;;;7.85;7.05;;;;;;;6.3;65.65625;95685.31;;;;
2020/04/09 03:59:09;;;;;;;7.85;7.05;;;;;;;6.3;65.65625;95685.31;;;;
2020/04/09 04:00:13;;;;;;;7.85;7.05;;;;;;;6.3;65.65625;95685.31;;;;
2020/04/09 04:01:35;;;;;;;7.85;7.05;;;;;;;6.3;65.65625;95685.31;;;;
2020/04/09 04:02:38;;;;;;;7.85;7.05;;;;;;;6.3;65.65625;95685.31;;;;
2020/04/09 04:03:39;;;;;;;9.400002;7.050001;;;;;;;6.2;64.82227;95689.31;;;;
2020/04/09 04:04:39;;;;;;;9.400002;7.050001;;;;;;;6.2;64.82227;95689.31;;;;
2020/04/09 04:05:41;;;;;;;8;6.95;;;;;;;6.21;65.82324;95693.13;;;;
2020/04/09 04:06:42;;;;;;;8;6.95;;;;;;;6.21;65.82324;95693.13;;;;
2020/04/09 04:07:45;;;;;;;8;6.95;;;;;;;6.21;65.82324;95693.13;;;;
2020/04/09 04:08:46;;;;;;;8;6.95;;;;;;;6.21;65.82324;95693.13;;;;
2020/04/09 04:09:48;;;;;;;8;6.95;;;;;;;6.21;65.82324;95693.13;;;;
2020/04/09 04:10:56;;;;;;;8;6.95;;;;;;;6.21;65.82324;95693.13;;;;
2020/04/09 04:11:57;;;;;;;8;6.95;;;;;;;6.21;65.82324;95693.13;;;;
2020/04/09 04:12:58;;;;;;;8;6.95;;;;;;;6.21;65.82324;95693.13;;;;
2020/04/09 04:13:58;;;;;;;8;6.95;;;;;;;6.21;65.82324;95693.13;;;;
2020/04/09 04:14:59;;;;;;;8;6.95;;;;;;;6.21;65.82324;95693.13;;;;
2020/04/09 04:15:59;;;;;;;8;6.95;;;;;;;6.21;65.82324;95693.13;;;;
2020/04/09 04:17:00;;;;;;;10.85;6.900001;;;;;;;6.13;65.27832;95681.33;;;;
2020/04/09 04:18:00;;;;;;;10.85;6.900001;;;;;;;6.13;65.27832;95681.33;;;;
2020/04/09 04:19:03;;;;;;;8.200001;7.2;;;;;;;6.18;66.12598;95686.92;;;;
2020/04/09 04:20:03;;;;;;;8.200001;7.2;;;;;;;6.18;66.12598;95686.92;;;;
2020/04/09 04:21:11;;;;;;;8.200001;7.2;;;;;;;6.18;66.12598;95686.92;;;;
2020/04/09 04:22:12;;;;;;;8.200001;7.2;;;;;;;6.18;66.12598;95686.92;;;;
2020/04/09 04:23:13;;;;;;;8.200001;7.2;;;;;;;6.18;66.12598;95686.92;;;;
2020/04/09 04:24:17;;;;;;;8.200001;7.2;;;;;;;6.18;66.12598;95686.92;;;;
2020/04/09 04:25:17;;;;;;;8.200001;7.2;;;;;;;6.18;66.12598;95686.92;;;;
2020/04/09 04:26:18;;;;;;;8.200001;7.2;;;;;;;6.18;66.12598;95686.92;;;;
2020/04/09 04:27:19;;;;;;;8.200001;7.2;;;;;;;6.18;66.12598;95686.92;;;;
2020/04/09 04:28:19;;;;;;;8.200001;7.2;;;;;;;6.18;66.12598;95686.92;;;;
2020/04/09 04:29:20;;;;;;;8.200001;7.2;;;;;;;6.18;66.12598;95686.92;;;;
2020/04/09 04:30:21;;;;;;;8.349999;6.599999;;;;;;;6.17;65.30469;95691.99;;;;
2020/04/09 04:31:22;;;;;;;8.349999;6.599999;;;;;;;6.17;65.30469;95691.99;;;;
2020/04/09 04:32:23;;;;;;;9.499999;7.199999;;;;;;;6.23;66.16602;95696.52;;;;
2020/04/09 04:33:24;;;;;;;9.499999;7.199999;;;;;;;6.23;66.16602;95696.52;;;;
2020/04/09 04:34:24;;;;;;;9.499999;7.199999;;;;;;;6.23;66.16602;95696.52;;;;
2020/04/09 04:35:25;;;;;;;9.499999;7.199999;;;;;;;6.23;66.16602;95696.52;;;;
2020/04/09 04:36:26;;;;;;;9.499999;7.199999;;;;;;;6.23;66.16602;95696.52;;;;
2020/04/09 04:37:26;;;;;;;9.499999;7.199999;;;;;;;6.23;66.16602;95696.52;;;;
2020/04/09 04:38:27;;;;;;;9.499999;7.199999;;;;;;;6.23;66.16602;95696.52;;;;
2020/04/09 04:39:27;;;;;;;9.499999;7.199999;;;;;;;6.23;66.16602;95696.52;;;;
2020/04/09 04:40:29;;;;;;;9.499999;7.199999;;;;;;;6.23;66.16602;95696.52;;;;
2020/04/09 04:41:29;;;;;;;9.499999;7.199999;;;;;;;6.23;66.16602;95696.52;;;;
2020/04/09 04:42:30;;;;;;;9.499999;7.199999;;;;;;;6.23;66.16602;95696.52;;;;
2020/04/09 04:43:30;;;;;;;9.550001;7.25;;;;;;;6.27;65.33301;95701.31;;;;
2020/04/09 04:44:30;;;;;;;9.550001;7.25;;;;;;;6.27;65.33301;95701.31;;;;
2020/04/09 04:45:31;;;;;;;9.550001;7.25;;;;;;;6.27;65.33301;95701.31;;;;
2020/04/09 04:46:31;;;;;;;9.550001;7.25;;;;;;;6.27;65.33301;95701.31;;;;
2020/04/09 04:47:32;;;;;;;9.550001;7.25;;;;;;;6.27;65.33301;95701.31;;;;
2020/04/09 04:48:33;;;;;;;9.550001;7.25;;;;;;;6.27;65.33301;95701.31;;;;
2020/04/09 04:49:33;;;;;;;9.550001;7.25;;;;;;;6.27;65.33301;95701.31;;;;
2020/04/09 04:50:34;;;;;;;9.550001;7.25;;;;;;;6.27;65.33301;95701.31;;;;
2020/04/09 04:51:34;;;;;;;9.550001;7.25;;;;;;;6.27;65.33301;95701.31;;;;
2020/04/09 04:52:35;;;;;;;9.550001;7.25;;;;;;;6.27;65.33301;95701.31;;;;
2020/04/09 04:53:36;;;;;;;8.65;7.200001;;;;;;;6.46;64.89355;95715.42;;;;
2020/04/09 04:54:36;;;;;;;8.65;7.200001;;;;;;;6.46;64.89355;95715.42;;;;
2020/04/09 04:55:37;;;;;;;8.65;7.200001;;;;;;;6.46;64.89355;95715.42;;;;
2020/04/09 04:56:38;;;;;;;8.65;7.200001;;;;;;;6.46;64.89355;95715.42;;;;
2020/04/09 04:57:38;;;;;;;8.65;7.200001;;;;;;;6.46;64.89355;95715.42;;;;
2020/04/09 04:58:39;;;;;;;8.65;7.200001;;;;;;;6.46;64.89355;95715.42;;;;
2020/04/09 04:59:39;;;;;;;8.65;7.200001;;;;;;;6.46;64.89355;95715.42;;;;
2020/04/09 05:00:40;;;;;;;8.65;7.200001;;;;;;;6.46;64.89355;95715.42;;;;
2020/04/09 05:01:41;;;;;;;8.65;7.200001;;;;;;;6.46;64.89355;95715.42;;;;
2020/04/09 05:02:41;;;;;;;8.65;7.200001;;;;;;;6.46;64.89355;95715.42;;;;
2020/04/09 05:03:42;;;;;;;8.65;7.200001;;;;;;;6.46;64.89355;95715.42;;;;
2020/04/09 05:04:42;;;;;;;8.999999;7.149999;;;;;;;6.69;64.31055;95717.27;;;;
2020/04/09 05:05:43;;;;;;;8.999999;7.149999;;;;;;;6.69;64.31055;95717.27;;;;
2020/04/09 05:06:44;;;;;;;8.25;7.299999;;;;;;;6.82;65.08594;95721.72;;;;
2020/04/09 05:07:45;;;;;;;8.25;7.299999;;;;;;;6.82;65.08594;95721.72;;;;
2020/04/09 05:08:45;;;;;;;8.25;7.299999;;;;;;;6.82;65.08594;95721.72;;;;
2020/04/09 05:09:46;;;;;;;8.25;7.299999;;;;;;;6.82;65.08594;95721.72;;;;
2020/04/09 05:10:46;;;;;;;8.25;7.299999;;;;;;;6.82;65.08594;95721.72;;;;
2020/04/09 05:11:47;;;;;;;8.25;7.299999;;;;;;;6.82;65.08594;95721.72;;;;
2020/04/09 05:12:48;;;;;;;8.25;7.299999;;;;;;;6.82;65.08594;95721.72;;;;
2020/04/09 05:13:49;;;;;;;8.25;7.299999;;;;;;;6.82;65.08594;95721.72;;;;
2020/04/09 05:14:49;;;;;;;8.25;7.299999;;;;;;;6.82;65.08594;95721.72;;;;
2020/04/09 05:15:50;;;;;;;8.25;7.299999;;;;;;;6.82;65.08594;95721.72;;;;
2020/04/09 05:16:51;;;;;;;8.25;7.299999;;;;;;;6.82;65.08594;95721.72;;;;
2020/04/09 05:17:51;;;;;;;8.9;7.249999;;;;;;;7.19;64.16113;95731.11;;;;
2020/04/09 05:18:52;;;;;;;8.9;7.249999;;;;;;;7.19;64.16113;95731.11;;;;
2020/04/09 05:19:52;;;;;;;9.9;7.6;;;;;;;7.34;64.89746;95737.53;;;;
2020/04/09 05:20:52;;;;;;;9.9;7.6;;;;;;;7.34;64.89746;95737.53;;;;
2020/04/09 05:21:53;;;;;;;9.9;7.6;;;;;;;7.34;64.89746;95737.53;;;;
2020/04/09 05:22:54;;;;;;;9.9;7.6;;;;;;;7.34;64.89746;95737.53;;;;
2020/04/09 05:23:55;;;;;;;9.9;7.6;;;;;;;7.34;64.89746;95737.53;;;;
2020/04/09 05:24:55;;;;;;;9.9;7.6;;;;;;;7.34;64.89746;95737.53;;;;
2020/04/09 05:25:56;;;;;;;9.9;7.6;;;;;;;7.34;64.89746;95737.53;;;;
2020/04/09 05:26:56;;;;;;;9.9;7.6;;;;;;;7.34;64.89746;95737.53;;;;
2020/04/09 05:28:00;;;;;;;9.9;7.6;;;;;;;7.34;64.89746;95737.53;;;;
2020/04/09 05:29:00;;;;;;;9.9;7.6;;;;;;;7.34;64.89746;95737.53;;;;
2020/04/09 05:30:01;;;;;;;9.9;7.6;;;;;;;7.34;64.89746;95737.53;;;;
2020/04/09 05:31:01;;;;;;;7.7;6.849999;;;;;;;7.78;63.85547;95747.6;;;;
2020/04/09 05:32:02;;;;;;;7.7;6.849999;;;;;;;7.78;63.85547;95747.6;;;;
2020/04/09 05:33:03;;;;;;;10.1;7.600001;;;;;;;7.97;64.48047;95746.86;;;;
2020/04/09 05:34:03;;;;;;;10.1;7.600001;;;;;;;7.97;64.48047;95746.86;;;;
2020/04/09 05:35:04;;;;;;;10.1;7.600001;;;;;;;7.97;64.48047;95746.86;;;;
2020/04/09 05:36:04;;;;;;;10.1;7.600001;;;;;;;7.97;64.48047;95746.86;;;;
2020/04/09 05:37:05;;;;;;;10.1;7.600001;;;;;;;7.97;64.48047;95746.86;;;;
2020/04/09 05:38:07;;;;;;;10.1;7.600001;;;;;;;7.97;64.48047;95746.86;;;;
2020/04/09 05:39:07;;;;;;;10.1;7.600001;;;;;;;7.97;64.48047;95746.86;;;;
2020/04/09 05:40:12;;;;;;;10.1;7.600001;;;;;;;7.97;64.48047;95746.86;;;;
2020/04/09 05:41:12;;;;;;;10.1;7.600001;;;;;;;7.97;64.48047;95746.86;;;;
2020/04/09 05:42:13;;;;;;;10.1;7.600001;;;;;;;7.97;64.48047;95746.86;;;;
2020/04/09 05:43:13;;;;;;;10.1;7.600001;;;;;;;7.97;64.48047;95746.86;;;;
2020/04/09 05:44:14;;;;;;;8.450001;7.100001;;;;;;;8.57;63.12598;95759.17;;;;
2020/04/09 05:45:14;;;;;;;8.450001;7.100001;;;;;;;8.57;63.12598;95759.17;;;;
2020/04/09 05:46:15;;;;;;;8.5;7.3;;;;;;;8.79;63.55566;95756.41;;;;
2020/04/09 05:47:15;;;;;;;8.5;7.3;;;;;;;8.79;63.55566;95756.41;;;;
2020/04/09 05:48:16;;;;;;;8.5;7.3;;;;;;;8.79;63.55566;95756.41;;;;
2020/04/09 05:49:17;;;;;;;8.5;7.3;;;;;;;8.79;63.55566;95756.41;;;;
2020/04/09 05:50:17;;;;;;;8.5;7.3;;;;;;;8.79;63.55566;95756.41;;;;
2020/04/09 05:51:18;;;;;;;8.5;7.3;;;;;;;8.79;63.55566;95756.41;;;;
2020/04/09 05:52:20;;;;;;;8.5;7.3;;;;;;;8.79;63.55566;95756.41;;;;
2020/04/09 05:53:21;;;;;;;8.5;7.3;;;;;;;8.79;63.55566;95756.41;;;;
2020/04/09 05:54:21;;;;;;;8.5;7.3;;;;;;;8.79;63.55566;95756.41;;;;
2020/04/09 05:55:22;;;;;;;8.5;7.3;;;;;;;8.79;63.55566;95756.41;;;;
2020/04/09 05:56:22;;;;;;;8.5;7.3;;;;;;;8.79;63.55566;95756.41;;;;
2020/04/09 05:57:23;;;;;;;7.95;6.65;;;;;;;9.55;62.10254;95771.24;;;;
2020/04/09 05:58:26;;;;;;;7.95;6.65;;;;;;;9.55;62.10254;95771.24;;;;
2020/04/09 05:59:27;;;;;;;7.8;6.999999;;;;;;;9.78;62.43457;95782.69;;;;
2020/04/09 06:00:30;;;;;;;7.8;6.999999;;;;;;;9.78;62.43457;95782.69;;;;
2020/04/09 06:01:44;;;;;;;7.8;6.999999;;;;;;;9.78;62.43457;95782.69;;;;
2020/04/09 06:02:45;;;;;;;7.8;6.999999;;;;;;;9.78;62.43457;95782.69;;;;
2020/04/09 06:03:45;;;;;;;7.8;6.999999;;;;;;;9.78;62.43457;95782.69;;;;
2020/04/09 06:04:46;;;;;;;7.8;6.999999;;;;;;;9.78;62.43457;95782.69;;;;
2020/04/09 06:05:46;;;;;;;7.8;6.999999;;;;;;;9.78;62.43457;95782.69;;;;
2020/04/09 06:06:48;;;;;;;7.8;6.999999;;;;;;;9.78;62.43457;95782.69;;;;
2020/04/09 06:07:51;;;;;;;7.8;6.999999;;;;;;;9.78;62.43457;95782.69;;;;
2020/04/09 06:08:52;;;;;;;7.8;6.999999;;;;;;;9.78;62.43457;95782.69;;;;
2020/04/09 06:09:52;;;;;;;7.8;6.999999;;;;;;;9.78;62.43457;95782.69;;;;
2020/04/09 06:10:53;;;;;;;7.45;6.75;;;;;;;10.6;60.83398;95787.38;;;;
2020/04/09 06:11:54;;;;;;;7.45;6.75;;;;;;;10.6;60.83398;95787.38;;;;
2020/04/09 06:12:54;;;;;;;8.749999;7.050001;;;;;;;10.83;60.79004;95785.8;;;;
2020/04/09 06:13:55;;;;;;;8.749999;7.050001;;;;;;;10.83;60.79004;95785.8;;;;
2020/04/09 06:14:56;;;;;;;8.749999;7.050001;;;;;;;10.83;60.79004;95785.8;;;;
2020/04/09 06:15:56;;;;;;;7.649999;6.849999;;;;;;;11.08;60.35254;95787.47;;;;
2020/04/09 06:16:57;;;;;;;7.649999;6.849999;;;;;;;11.08;60.35254;95787.47;;;;
2020/04/09 06:17:58;;;;;;;8.799999;7.15;;;;;;;11.33;59.94434;95789.01;;;;
2020/04/09 06:18:59;;;;;;;8.799999;7.15;;;;;;;11.33;59.94434;95789.01;;;;
2020/04/09 06:20:00;;;;;;;8.799999;7.15;;;;;;;11.33;59.94434;95789.01;;;;
2020/04/09 06:21:05;;;;;;;8.799999;7.15;;;;;;;11.33;59.94434;95789.01;;;;
2020/04/09 06:22:14;;;;;;;8.799999;7.15;;;;;;;11.33;59.94434;95789.01;;;;
2020/04/09 06:23:25;;;;;;;8.799999;7.15;;;;;;;11.33;59.94434;95789.01;;;;
2020/04/09 06:26:04;;;;;;;8.799999;7.15;;;;;;;11.33;59.94434;95789.01;;;;
2020/04/09 06:30:35;;;;;;;8.6;6.6;;;;;;;11.89;58.77148;95799.88;;;;
2020/04/09 06:32:22;;;;;;;9.25;6.649999;;;;;;;12.1;58.5625;95798.94;;;;
2020/04/09 06:33:34;;;;;;;9.25;6.649999;;;;;;;12.1;58.5625;95798.94;;;;
2020/04/09 06:34:42;;;;;;;9.25;6.649999;;;;;;;12.1;58.5625;95798.94;;;;
2020/04/09 06:35:57;;;;;;;9.25;6.649999;;;;;;;12.1;58.5625;95798.94;;;;
2020/04/09 06:37:03;;;;;;;9.25;6.649999;;;;;;;12.1;58.5625;95798.94;;;;
2020/04/09 06:38:09;;;;;;;9.25;6.649999;;;;;;;12.1;58.5625;95798.94;;;;
2020/04/09 06:39:15;;;;;;;9.25;6.649999;;;;;;;12.1;58.5625;95798.94;;;;
2020/04/09 06:40:57;;;;;;;9.25;6.649999;;;;;;;12.1;58.5625;95798.94;;;;
2020/04/09 06:42:15;;;;;;;9.700001;7.349999;;;;;;;12.71;57.47559;95806.22;;;;
2020/04/09 06:43:29;;;;;;;9.700001;7.349999;;;;;;;12.71;57.47559;95806.22;;;;
2020/04/09 06:44:35;;;;;;;8.250002;6.3;;;;;;;12.91;57.10449;95809.29;;;;
2020/04/09 06:45:36;;;;;;;8.250002;6.3;;;;;;;12.91;57.10449;95809.29;;;;
2020/04/09 06:46:36;;;;;;;8.250002;6.3;;;;;;;12.91;57.10449;95809.29;;;;
2020/04/09 06:47:37;;;;;;;9.75;7.199999;;;;;;;13.17;56.48828;95808.89;;;;
2020/04/09 06:48:38;;;;;;;9.75;7.199999;;;;;;;13.17;56.48828;95808.89;;;;
2020/04/09 06:49:39;;;;;;;7.999999;6.85;;;;;;;13.4;55.83496;95807.89;;;;
2020/04/09 06:50:39;;;;;;;7.999999;6.85;;;;;;;13.4;55.83496;95807.89;;;;
2020/04/09 06:51:40;;;;;;;7.999999;6.85;;;;;;;13.4;55.83496;95807.89;;;;
2020/04/09 06:52:40;;;;;;;7.999999;6.85;;;;;;;13.4;55.83496;95807.89;;;;
2020/04/09 06:53:41;;;;;;;7.999999;6.85;;;;;;;13.4;55.83496;95807.89;;;;
2020/04/09 06:54:41;;;;;;;7.999999;6.85;;;;;;;13.4;55.83496;95807.89;;;;
2020/04/09 06:55:42;;;;;;;7.999999;6.85;;;;;;;13.4;55.83496;95807.89;;;;